Página principal
METAR-TAF:

METAR-TAF

Aeroportos :

Diourbel, Senegal

latitude: 14-39N, longitude: 016-14W, altura: 7 m

Observação actual do tempo

O boletim foi feito há 1 hora e 25 minutos, às 12:00 UTC
Vento 8 kt de oeste
Temperatura 33°C
Humidade 59%
Pressão 1013 hPa
Visibilidade 10 km ou mais
Nuvens dispersasa uma altura de 1300 ft

METAR: GOOD 071200Z 28008KT 9999 SCT013 33/24 Q1013

Hora: 13:25 (13:25 UTC)


TAF: em falta

Observações e previsões do tempo de mais de 4000 aeroportos (mensagens METAR e TAF).

As estações disponíveis são os pontos amarelos e vermelhos sobre o mapa.

Mova o rato sobre o mapa para ver o nome da estação.

Depois clique no ponto para visualizar as observações e previsões meteorológicas.

Para alterar o mapa : clique nos botões verdes com uma cruz preta para aumentar o zoom; no botão verde com uma pitada de zoom; ou nas setas verdes para mapas adjacentes.


METAR-TAF: